sensor_id;sensor_type;location;lat;lon;timestamp;pressure;altitude;pressure_sealevel;temperature;humidity
60427;BME280;46274;47.168;27.604;2023-04-30T00:01:31;99778.78;;;4.61;62.50
60427;BME280;46274;47.168;27.604;2023-04-30T00:07:33;99826.25;;;4.98;61.66
60427;BME280;46274;47.168;27.604;2023-04-30T00:13:35;99840.78;;;3.80;67.69
60427;BME280;46274;47.168;27.604;2023-04-30T00:19:38;99808.47;;;4.21;64.77
60427;BME280;46274;47.168;27.604;2023-04-30T00:25:40;99776.47;;;4.00;65.09
60427;BME280;46274;47.168;27.604;2023-04-30T00:31:46;99662.38;;;3.68;62.88
60427;BME280;46274;47.168;27.604;2023-04-30T00:37:50;99828.59;;;4.83;62.30
60427;BME280;46274;47.168;27.604;2023-04-30T00:43:53;99822.50;;;4.81;61.81
60427;BME280;46274;47.168;27.604;2023-04-30T00:49:55;99836.06;;;2.40;74.59
60427;BME280;46274;47.168;27.604;2023-04-30T00:55:58;99809.19;;;2.62;73.01
60427;BME280;46274;47.168;27.604;2023-04-30T01:02:02;99827.41;;;4.09;66.42
60427;BME280;46274;47.168;27.604;2023-04-30T01:08:04;99817.53;;;4.29;64.11
60427;BME280;46274;47.168;27.604;2023-04-30T01:14:11;99821.88;;;4.40;63.11
60427;BME280;46274;47.168;27.604;2023-04-30T01:20:14;99818.47;;;2.16;74.46
60427;BME280;46274;47.168;27.604;2023-04-30T01:26:33;99817.78;;;3.18;69.72
60427;BME280;46274;47.168;27.604;2023-04-30T01:32:40;99788.31;;;3.78;65.68
60427;BME280;46274;47.168;27.604;2023-04-30T01:39:05;99802.56;;;4.07;63.43
60427;BME280;46274;47.168;27.604;2023-04-30T01:51:30;99794.81;;;4.04;63.73
60427;BME280;46274;47.168;27.604;2023-04-30T01:57:51;99730.84;;;3.22;65.56
60427;BME280;46274;47.168;27.604;2023-04-30T02:03:57;99752.69;;;2.46;70.77
60427;BME280;46274;47.168;27.604;2023-04-30T02:10:00;99778.84;;;3.64;65.48
60427;BME280;46274;47.168;27.604;2023-04-30T02:16:02;99741.03;;;3.38;64.43
60427;BME280;46274;47.168;27.604;2023-04-30T02:22:05;99736.78;;;3.35;64.32
60427;BME280;46274;47.168;27.604;2023-04-30T02:28:10;99700.53;;;3.12;64.33
60427;BME280;46274;47.168;27.604;2023-04-30T02:34:13;99782.59;;;3.32;65.64
60427;BME280;46274;47.168;27.604;2023-04-30T02:40:15;99782.50;;;3.53;64.36
60427;BME280;46274;47.168;27.604;2023-04-30T02:46:17;99763.44;;;2.35;68.74
60427;BME280;46274;47.168;27.604;2023-04-30T02:52:20;99722.59;;;2.02;70.32
60427;BME280;46274;47.168;27.604;2023-04-30T02:58:23;99729.78;;;2.84;66.09
60427;BME280;46274;47.168;27.604;2023-04-30T03:04:25;99786.19;;;2.71;67.66
60427;BME280;46274;47.168;27.604;2023-04-30T03:10:30;99656.75;;;2.22;66.50
60427;BME280;46274;47.168;27.604;2023-04-30T03:16:32;99788.44;;;2.76;67.65
60427;BME280;46274;47.168;27.604;2023-04-30T03:22:35;99795.53;;;3.27;65.37
60427;BME280;46274;47.168;27.604;2023-04-30T03:28:37;99790.19;;;3.27;64.89
60427;BME280;46274;47.168;27.604;2023-04-30T03:34:40;99694.97;;;2.74;64.41
60427;BME280;46274;47.168;27.604;2023-04-30T03:40:42;99775.81;;;3.18;64.92
60427;BME280;46274;47.168;27.604;2023-04-30T03:46:45;99749.06;;;2.88;66.22
60427;BME280;46274;47.168;27.604;2023-04-30T03:52:49;99779.03;;;3.22;65.78
60427;BME280;46274;47.168;27.604;2023-04-30T03:58:53;99816.34;;;3.54;65.97
60427;BME280;46274;47.168;27.604;2023-04-30T04:04:56;99793.34;;;3.52;66.12
60427;BME280;46274;47.168;27.604;2023-04-30T04:11:00;99764.56;;;3.54;66.54
60427;BME280;46274;47.168;27.604;2023-04-30T04:17:02;99805.69;;;3.93;65.86
60427;BME280;46274;47.168;27.604;2023-04-30T04:23:07;99822.47;;;4.34;65.08
60427;BME280;46274;47.168;27.604;2023-04-30T04:29:10;99798.31;;;4.34;67.71
60427;BME280;46274;47.168;27.604;2023-04-30T04:35:16;99800.97;;;4.44;66.56
60427;BME280;46274;47.168;27.604;2023-04-30T04:41:19;99801.75;;;4.73;66.11
60427;BME280;46274;47.168;27.604;2023-04-30T04:47:23;99826.53;;;5.05;65.96
60427;BME280;46274;47.168;27.604;2023-04-30T04:53:26;99822.59;;;5.27;65.50
60427;BME280;46274;47.168;27.604;2023-04-30T04:59:28;99821.34;;;5.58;67.72
60427;BME280;46274;47.168;27.604;2023-04-30T05:05:34;99807.91;;;5.58;65.60
60427;BME280;46274;47.168;27.604;2023-04-30T05:11:37;99811.16;;;5.52;67.02
60427;BME280;46274;47.168;27.604;2023-04-30T05:17:42;99710.72;;;5.17;66.97
60427;BME280;46274;47.168;27.604;2023-04-30T05:23:46;99835.25;;;5.99;67.06
60427;BME280;46274;47.168;27.604;2023-04-30T05:29:50;99807.59;;;6.25;66.46
60427;BME280;46274;47.168;27.604;2023-04-30T05:35:55;99810.56;;;6.22;67.79
60427;BME280;46274;47.168;27.604;2023-04-30T05:41:58;99791.66;;;6.58;65.99
60427;BME280;46274;47.168;27.604;2023-04-30T05:48:00;99829.22;;;6.85;67.11
60427;BME280;46274;47.168;27.604;2023-04-30T05:54:03;99829.53;;;7.08;67.05
60427;BME280;46274;47.168;27.604;2023-04-30T06:00:08;99820.88;;;7.31;66.64
60427;BME280;46274;47.168;27.604;2023-04-30T06:06:11;99664.91;;;6.77;66.11
60427;BME280;46274;47.168;27.604;2023-04-30T06:12:17;99750.09;;;8.20;64.54
60427;BME280;46274;47.168;27.604;2023-04-30T06:18:21;99795.22;;;9.16;59.52
60427;BME280;46274;47.168;27.604;2023-04-30T06:24:23;99815.59;;;9.98;57.24
60427;BME280;46274;47.168;27.604;2023-04-30T06:30:30;99822.84;;;10.52;53.93
60427;BME280;46274;47.168;27.604;2023-04-30T06:36:32;99825.47;;;11.12;54.20
60427;BME280;46274;47.168;27.604;2023-04-30T06:42:34;99822.84;;;11.64;54.06
60427;BME280;46274;47.168;27.604;2023-04-30T06:48:36;99811.69;;;11.88;51.41
60427;BME280;46274;47.168;27.604;2023-04-30T06:54:38;99808.28;;;12.65;50.07
60427;BME280;46274;47.168;27.604;2023-04-30T07:00:43;99762.09;;;13.00;48.19
60427;BME280;46274;47.168;27.604;2023-04-30T07:06:45;99801.44;;;13.74;46.29
60427;BME280;46274;47.168;27.604;2023-04-30T07:12:49;99748.75;;;14.28;46.00
60427;BME280;46274;47.168;27.604;2023-04-30T07:18:54;99791.81;;;13.85;36.27
60427;BME280;46274;47.168;27.604;2023-04-30T07:24:57;99753.31;;;14.14;41.30
60427;BME280;46274;47.168;27.604;2023-04-30T07:30:59;99788.56;;;14.43;35.14
60427;BME280;46274;47.168;27.604;2023-04-30T07:37:04;99659.00;;;13.73;37.54
60427;BME280;46274;47.168;27.604;2023-04-30T07:43:11;99772.88;;;14.58;35.36
60427;BME280;46274;47.168;27.604;2023-04-30T07:49:48;99796.78;;;14.76;36.63
60427;BME280;46274;47.168;27.604;2023-04-30T07:55:50;99786.09;;;14.68;36.08
60427;BME280;46274;47.168;27.604;2023-04-30T08:01:55;99718.34;;;14.78;36.10
60427;BME280;46274;47.168;27.604;2023-04-30T08:08:04;99785.66;;;14.91;34.61
60427;BME280;46274;47.168;27.604;2023-04-30T08:14:06;99747.47;;;15.62;36.02
60427;BME280;46274;47.168;27.604;2023-04-30T08:20:09;99784.00;;;16.38;35.46
60427;BME280;46274;47.168;27.604;2023-04-30T08:26:12;99743.22;;;16.11;35.12
60427;BME280;46274;47.168;27.604;2023-04-30T08:32:14;99734.00;;;15.16;36.69
60427;BME280;46274;47.168;27.604;2023-04-30T08:38:16;99710.97;;;14.12;32.57
60427;BME280;46274;47.168;27.604;2023-04-30T08:44:23;99736.41;;;15.37;33.21
60427;BME280;46274;47.168;27.604;2023-04-30T08:50:28;99769.56;;;15.41;32.23
60427;BME280;46274;47.168;27.604;2023-04-30T08:56:32;99735.75;;;16.50;34.13
60427;BME280;46274;47.168;27.604;2023-04-30T09:02:42;99763.53;;;15.84;31.09
60427;BME280;46274;47.168;27.604;2023-04-30T09:08:47;99721.78;;;16.58;33.59
60427;BME280;46274;47.168;27.604;2023-04-30T09:15:00;99757.56;;;16.57;33.96
60427;BME280;46274;47.168;27.604;2023-04-30T09:21:04;99738.41;;;17.93;33.94
60427;BME280;46274;47.168;27.604;2023-04-30T09:27:20;99748.34;;;16.51;33.71
60427;BME280;46274;47.168;27.604;2023-04-30T09:33:23;99728.28;;;18.47;34.10
60427;BME280;46274;47.168;27.604;2023-04-30T09:39:26;99702.09;;;16.93;32.96
60427;BME280;46274;47.168;27.604;2023-04-30T09:45:45;99720.78;;;16.28;32.54
60427;BME280;46274;47.168;27.604;2023-04-30T09:51:59;99717.31;;;16.39;31.82
60427;BME280;46274;47.168;27.604;2023-04-30T09:58:07;99717.59;;;16.31;31.23
60427;BME280;46274;47.168;27.604;2023-04-30T10:04:10;99692.22;;;17.11;33.30
60427;BME280;46274;47.168;27.604;2023-04-30T10:10:13;99703.13;;;17.48;32.56
60427;BME280;46274;47.168;27.604;2023-04-30T10:16:46;99705.88;;;16.74;31.73
60427;BME280;46274;47.168;27.604;2023-04-30T10:22:52;99701.09;;;17.73;31.46
60427;BME280;46274;47.168;27.604;2023-04-30T10:28:55;99697.94;;;18.18;31.68
60427;BME280;46274;47.168;27.604;2023-04-30T10:35:09;99687.16;;;17.44;29.94
60427;BME280;46274;47.168;27.604;2023-04-30T10:41:13;99645.25;;;16.95;32.30
60427;BME280;46274;47.168;27.604;2023-04-30T10:47:18;99675.22;;;18.88;31.69
60427;BME280;46274;47.168;27.604;2023-04-30T10:53:22;99680.50;;;17.71;33.55
60427;BME280;46274;47.168;27.604;2023-04-30T10:59:29;99665.63;;;17.78;30.64
60427;BME280;46274;47.168;27.604;2023-04-30T11:05:35;99601.94;;;17.53;34.12
60427;BME280;46274;47.168;27.604;2023-04-30T11:11:38;99666.22;;;18.22;30.36
60427;BME280;46274;47.168;27.604;2023-04-30T11:17:42;99627.00;;;17.08;30.84
60427;BME280;46274;47.168;27.604;2023-04-30T11:23:48;99664.19;;;17.94;30.61
60427;BME280;46274;47.168;27.604;2023-04-30T11:29:51;99586.91;;;17.43;29.66
60427;BME280;46274;47.168;27.604;2023-04-30T11:35:59;99611.28;;;18.29;30.24
60427;BME280;46274;47.168;27.604;2023-04-30T11:42:03;99645.69;;;19.07;30.34
60427;BME280;46274;47.168;27.604;2023-04-30T11:48:05;99634.75;;;18.84;30.76
60427;BME280;46274;47.168;27.604;2023-04-30T11:54:08;99593.84;;;17.58;31.12
60427;BME280;46274;47.168;27.604;2023-04-30T12:00:18;99642.84;;;18.08;30.44
60427;BME280;46274;47.168;27.604;2023-04-30T12:06:25;99519.72;;;18.06;31.03
60427;BME280;46274;47.168;27.604;2023-04-30T12:12:29;99574.84;;;18.92;31.24
60427;BME280;46274;47.168;27.604;2023-04-30T12:18:34;99528.06;;;17.88;30.59
60427;BME280;46274;47.168;27.604;2023-04-30T12:24:38;99624.53;;;19.48;30.08
60427;BME280;46274;47.168;27.604;2023-04-30T12:30:41;99594.56;;;18.42;30.10
60427;BME280;46274;47.168;27.604;2023-04-30T12:36:44;99591.47;;;18.50;30.66
60427;BME280;46274;47.168;27.604;2023-04-30T12:42:47;99625.16;;;19.10;31.61
60427;BME280;46274;47.168;27.604;2023-04-30T12:48:49;99608.63;;;18.58;31.25
60427;BME280;46274;47.168;27.604;2023-04-30T12:54:52;99604.25;;;18.21;30.62
60427;BME280;46274;47.168;27.604;2023-04-30T13:00:59;99488.41;;;18.55;30.89
60427;BME280;46274;47.168;27.604;2023-04-30T13:07:02;99532.53;;;18.65;31.07
60427;BME280;46274;47.168;27.604;2023-04-30T13:13:07;99568.47;;;19.95;31.32
60427;BME280;46274;47.168;27.604;2023-04-30T13:19:09;99584.16;;;19.20;30.11
60427;BME280;46274;47.168;27.604;2023-04-30T13:25:13;99574.44;;;20.25;30.68
60427;BME280;46274;47.168;27.604;2023-04-30T13:31:15;99578.31;;;19.74;30.17
60427;BME280;46274;47.168;27.604;2023-04-30T13:37:18;99574.75;;;18.87;29.37
60427;BME280;46274;47.168;27.604;2023-04-30T13:43:21;99582.19;;;19.32;29.31
60427;BME280;46274;47.168;27.604;2023-04-30T13:49:26;99585.56;;;18.94;31.23
60427;BME280;46274;47.168;27.604;2023-04-30T13:55:28;99579.53;;;19.37;29.91
60427;BME280;46274;47.168;27.604;2023-04-30T14:01:31;99580.59;;;18.67;29.83
60427;BME280;46274;47.168;27.604;2023-04-30T14:07:34;99477.44;;;18.95;29.40
60427;BME280;46274;47.168;27.604;2023-04-30T14:13:38;99565.44;;;19.63;29.23
60427;BME280;46274;47.168;27.604;2023-04-30T14:19:40;99519.84;;;19.16;30.15
60427;BME280;46274;47.168;27.604;2023-04-30T14:25:43;99518.31;;;18.80;28.73
60427;BME280;46274;47.168;27.604;2023-04-30T14:31:48;99577.31;;;19.51;28.84
60427;BME280;46274;47.168;27.604;2023-04-30T14:37:51;99571.16;;;19.73;29.98
60427;BME280;46274;47.168;27.604;2023-04-30T14:43:53;99585.00;;;19.21;28.93
60427;BME280;46274;47.168;27.604;2023-04-30T14:49:58;99599.59;;;19.09;29.81
60427;BME280;46274;47.168;27.604;2023-04-30T14:56:06;99590.78;;;19.36;29.83
60427;BME280;46274;47.168;27.604;2023-04-30T15:02:10;99524.41;;;18.70;30.54
60427;BME280;46274;47.168;27.604;2023-04-30T15:08:22;99554.28;;;19.52;30.26
60427;BME280;46274;47.168;27.604;2023-04-30T15:14:34;99493.50;;;18.63;29.83
60427;BME280;46274;47.168;27.604;2023-04-30T15:20:40;99520.28;;;18.44;29.64
60427;BME280;46274;47.168;27.604;2023-04-30T15:26:43;99506.41;;;18.62;30.15
60427;BME280;46274;47.168;27.604;2023-04-30T15:32:48;99480.72;;;18.80;29.72
60427;BME280;46274;47.168;27.604;2023-04-30T15:38:51;99581.09;;;19.05;29.22
60427;BME280;46274;47.168;27.604;2023-04-30T15:44:56;99527.94;;;18.18;29.80
60427;BME280;46274;47.168;27.604;2023-04-30T15:50:59;99582.66;;;18.48;29.59
60427;BME280;46274;47.168;27.604;2023-04-30T15:57:01;99546.88;;;18.43;29.57
60427;BME280;46274;47.168;27.604;2023-04-30T16:03:13;99566.09;;;18.31;29.19
60427;BME280;46274;47.168;27.604;2023-04-30T16:09:22;99570.47;;;18.33;29.53
60427;BME280;46274;47.168;27.604;2023-04-30T16:15:28;99574.06;;;18.09;31.44
60427;BME280;46274;47.168;27.604;2023-04-30T16:21:36;99611.88;;;18.19;30.48
60427;BME280;46274;47.168;27.604;2023-04-30T16:27:39;99616.59;;;17.88;30.91
60427;BME280;46274;47.168;27.604;2023-04-30T16:33:42;99611.50;;;18.27;31.15
60427;BME280;46274;47.168;27.604;2023-04-30T16:39:44;99614.38;;;17.67;32.06
60427;BME280;46274;47.168;27.604;2023-04-30T16:45:49;99614.31;;;17.43;32.26
60427;BME280;46274;47.168;27.604;2023-04-30T16:51:56;99620.72;;;17.37;33.40
60427;BME280;46274;47.168;27.604;2023-04-30T16:57:58;99625.78;;;17.04;32.75
60427;BME280;46274;47.168;27.604;2023-04-30T17:04:11;99589.50;;;17.08;33.53
60427;BME280;46274;47.168;27.604;2023-04-30T17:10:17;99589.91;;;17.12;33.19
60427;BME280;46274;47.168;27.604;2023-04-30T17:16:22;99615.13;;;16.77;34.04
60427;BME280;46274;47.168;27.604;2023-04-30T17:22:24;99627.78;;;16.96;34.75
60427;BME280;46274;47.168;27.604;2023-04-30T17:28:29;99644.84;;;17.29;34.40
60427;BME280;46274;47.168;27.604;2023-04-30T17:34:34;99657.19;;;17.19;34.90
60427;BME280;46274;47.168;27.604;2023-04-30T17:40:39;99661.47;;;16.78;35.98
60427;BME280;46274;47.168;27.604;2023-04-30T17:46:42;99615.88;;;16.29;36.62
60427;BME280;46274;47.168;27.604;2023-04-30T17:52:45;99544.84;;;15.47;37.55
60427;BME280;46274;47.168;27.604;2023-04-30T17:58:48;99676.47;;;15.94;38.35
60427;BME280;46274;47.168;27.604;2023-04-30T18:04:51;99681.47;;;15.65;38.99
60427;BME280;46274;47.168;27.604;2023-04-30T18:10:53;99661.72;;;15.25;39.79
60427;BME280;46274;47.168;27.604;2023-04-30T18:16:56;99691.97;;;15.23;40.07
60427;BME280;46274;47.168;27.604;2023-04-30T18:22:59;99705.25;;;15.07;40.30
60427;BME280;46274;47.168;27.604;2023-04-30T18:29:01;99612.25;;;14.30;40.50
60427;BME280;46274;47.168;27.604;2023-04-30T18:35:04;99714.34;;;14.80;40.44
60427;BME280;46274;47.168;27.604;2023-04-30T18:41:07;99693.59;;;14.53;40.58
60427;BME280;46274;47.168;27.604;2023-04-30T18:47:10;99715.81;;;14.50;40.83
60427;BME280;46274;47.168;27.604;2023-04-30T18:53:12;99585.28;;;13.62;41.07
60427;BME280;46274;47.168;27.604;2023-04-30T18:59:14;99717.72;;;14.23;40.92
60427;BME280;46274;47.168;27.604;2023-04-30T19:05:18;99722.09;;;13.29;42.88
60427;BME280;46274;47.168;27.604;2023-04-30T19:11:22;99708.72;;;12.64;43.87
60427;BME280;46274;47.168;27.604;2023-04-30T19:17:24;99752.66;;;10.95;52.75
60427;BME280;46274;47.168;27.604;2023-04-30T19:23:27;99732.16;;;12.65;46.75
60427;BME280;46274;47.168;27.604;2023-04-30T19:29:33;99732.75;;;12.89;44.51
60427;BME280;46274;47.168;27.604;2023-04-30T19:35:37;99699.09;;;12.62;44.12
60427;BME280;46274;47.168;27.604;2023-04-30T19:41:40;99735.88;;;12.86;43.71
60427;BME280;46274;47.168;27.604;2023-04-30T19:47:42;99751.03;;;12.74;44.05
60427;BME280;46274;47.168;27.604;2023-04-30T19:53:46;99723.44;;;12.42;44.50
60427;BME280;46274;47.168;27.604;2023-04-30T19:59:48;99767.88;;;12.34;45.04
60427;BME280;46274;47.168;27.604;2023-04-30T20:05:51;99668.50;;;11.75;44.68
60427;BME280;46274;47.168;27.604;2023-04-30T20:11:53;99782.16;;;12.43;44.36
60427;BME280;46274;47.168;27.604;2023-04-30T20:17:57;99788.50;;;12.29;44.76
60427;BME280;46274;47.168;27.604;2023-04-30T20:24:00;99778.03;;;12.04;45.10
60427;BME280;46274;47.168;27.604;2023-04-30T20:30:05;99687.53;;;11.39;45.28
60427;BME280;46274;47.168;27.604;2023-04-30T20:36:11;99801.28;;;11.92;45.54
60427;BME280;46274;47.168;27.604;2023-04-30T20:42:14;99703.66;;;11.26;45.90
60427;BME280;46274;47.168;27.604;2023-04-30T20:48:16;99821.78;;;11.79;46.45
60427;BME280;46274;47.168;27.604;2023-04-30T20:54:19;99828.81;;;11.74;46.39
60427;BME280;46274;47.168;27.604;2023-04-30T21:00:23;99846.97;;;11.73;46.26
60427;BME280;46274;47.168;27.604;2023-04-30T21:06:28;99844.66;;;11.70;46.61
60427;BME280;46274;47.168;27.604;2023-04-30T21:12:31;99860.09;;;11.55;48.79
60427;BME280;46274;47.168;27.604;2023-04-30T21:18:33;99856.44;;;11.63;50.57
60427;BME280;46274;47.168;27.604;2023-04-30T21:24:39;99885.19;;;11.57;52.94
60427;BME280;46274;47.168;27.604;2023-04-30T21:30:41;99884.69;;;11.53;56.90
60427;BME280;46274;47.168;27.604;2023-04-30T21:36:44;99861.22;;;11.46;59.78
60427;BME280;46274;47.168;27.604;2023-04-30T21:42:47;99652.88;;;10.16;61.79
60427;BME280;46274;47.168;27.604;2023-04-30T21:48:51;99897.50;;;11.74;63.96
60427;BME280;46274;47.168;27.604;2023-04-30T21:54:53;99909.69;;;11.78;65.47
60427;BME280;46274;47.168;27.604;2023-04-30T22:00:56;99906.72;;;11.88;66.49
60427;BME280;46274;47.168;27.604;2023-04-30T22:07:01;99902.84;;;11.83;66.76
60427;BME280;46274;47.168;27.604;2023-04-30T22:13:04;99898.72;;;11.72;67.96
60427;BME280;46274;47.168;27.604;2023-04-30T22:19:09;99797.44;;;11.05;68.81
60427;BME280;46274;47.168;27.604;2023-04-30T22:25:18;99942.47;;;11.92;69.28
60427;BME280;46274;47.168;27.604;2023-04-30T22:31:21;99891.63;;;11.56;69.75
60427;BME280;46274;47.168;27.604;2023-04-30T22:37:24;99936.44;;;11.82;70.66
60427;BME280;46274;47.168;27.604;2023-04-30T22:43:27;99941.88;;;11.82;71.74
60427;BME280;46274;47.168;27.604;2023-04-30T22:49:32;99896.41;;;11.54;72.57
60427;BME280;46274;47.168;27.604;2023-04-30T22:55:35;99950.31;;;11.87;71.64
60427;BME280;46274;47.168;27.604;2023-04-30T23:01:38;99939.25;;;11.73;72.25
60427;BME280;46274;47.168;27.604;2023-04-30T23:07:42;99817.53;;;10.96;72.68
60427;BME280;46274;47.168;27.604;2023-04-30T23:13:50;99963.97;;;11.78;72.59
60427;BME280;46274;47.168;27.604;2023-04-30T23:19:54;99907.72;;;11.43;72.92
60427;BME280;46274;47.168;27.604;2023-04-30T23:25:57;99881.78;;;11.25;72.61
60427;BME280;46274;47.168;27.604;2023-04-30T23:32:01;99888.06;;;11.26;72.90
60427;BME280;46274;47.168;27.604;2023-04-30T23:38:04;99903.31;;;11.42;72.50
60427;BME280;46274;47.168;27.604;2023-04-30T23:44:07;99997.53;;;12.00;71.59
60427;BME280;46274;47.168;27.604;2023-04-30T23:50:10;99954.22;;;11.69;71.13
60427;BME280;46274;47.168;27.604;2023-04-30T23:56:13;100002.75;;;12.02;70.51
